createdAt,value
2023-05-20T00:01:07.319Z,25.58
2023-05-20T00:03:34.500Z,30.33
2023-05-20T00:06:01.617Z,27.25
2023-05-20T00:08:28.667Z,28.63
2023-05-20T00:10:55.703Z,26.08
2023-05-20T00:13:24.270Z,28.05
2023-05-20T00:15:53.328Z,28.90
2023-05-20T00:18:20.497Z,29.30
2023-05-20T00:20:47.553Z,28.42
2023-05-20T00:23:14.873Z,29.27
2023-05-20T00:25:41.939Z,28.60
2023-05-20T00:28:09.051Z,28.33
2023-05-20T00:30:36.103Z,30.35
2023-05-20T00:33:03.183Z,27.95
2023-05-20T00:35:30.369Z,28.27
2023-05-20T00:37:57.443Z,31.52
2023-05-20T00:40:25.347Z,29.13
2023-05-20T00:42:52.424Z,31.83
2023-05-20T00:45:19.482Z,29.75
2023-05-20T00:47:46.876Z,29.70
2023-05-20T00:50:14.101Z,28.67
2023-05-20T00:52:45.066Z,34.25
2023-05-20T00:55:12.624Z,31.20
2023-05-20T00:57:39.918Z,33.00
2023-05-20T01:00:10.437Z,38.33
2023-05-20T01:02:37.829Z,33.85
2023-05-20T01:05:07.996Z,31.45
2023-05-20T01:07:35.588Z,31.45
2023-05-20T01:10:02.804Z,33.30
2023-05-20T01:12:46.398Z,31.30
2023-05-20T01:15:16.484Z,31.15
2023-05-20T01:17:51.493Z,33.65
2023-05-20T01:20:20.706Z,34.22
2023-05-20T01:22:54.931Z,36.33
2023-05-20T01:25:22.488Z,34.35
2023-05-20T01:27:50.218Z,36.75
2023-05-20T01:30:17.547Z,36.13
2023-05-20T01:33:09.274Z,35.03
2023-05-20T01:35:36.924Z,33.88
2023-05-20T01:38:06.563Z,34.83
2023-05-20T01:40:34.754Z,35.30
2023-05-20T01:43:03.443Z,34.88
2023-05-20T01:45:31.315Z,36.30
2023-05-20T01:47:58.408Z,38.08
2023-05-20T01:50:26.533Z,34.97
2023-05-20T01:52:53.638Z,40.60
2023-05-20T01:55:20.748Z,36.80
2023-05-20T01:57:47.948Z,35.53
2023-05-20T02:00:15.283Z,40.60
2023-05-20T02:02:42.434Z,38.28
2023-05-20T02:05:10.207Z,39.60
2023-05-20T02:07:37.372Z,36.35
2023-05-20T02:10:05.353Z,37.70
2023-05-20T02:12:32.623Z,37.75
2023-05-20T02:14:59.693Z,41.50
2023-05-20T02:17:26.928Z,35.83
2023-05-20T02:19:54.052Z,35.20
2023-05-20T02:22:21.092Z,36.70
2023-05-20T02:24:48.110Z,36.30
2023-05-20T02:27:15.281Z,39.30
2023-05-20T02:29:44.388Z,36.28
2023-05-20T02:32:12.609Z,39.85
2023-05-20T02:34:39.749Z,38.70
2023-05-20T02:37:06.827Z,38.40
2023-05-20T02:39:33.964Z,37.38
2023-05-20T02:42:01.211Z,39.47
2023-05-20T02:44:28.248Z,40.25
2023-05-20T02:46:55.470Z,38.65
2023-05-20T02:49:22.644Z,38.22
2023-05-20T02:51:49.706Z,41.10
2023-05-20T02:54:16.906Z,41.75
2023-05-20T02:56:43.945Z,45.83
2023-05-20T02:59:11.139Z,37.65
2023-05-20T03:01:38.507Z,39.75
2023-05-20T03:04:05.795Z,39.17
2023-05-20T03:06:32.991Z,39.35
2023-05-20T03:09:00.138Z,45.25
2023-05-20T03:11:27.244Z,39.10
2023-05-20T03:13:54.332Z,37.70
2023-05-20T03:16:22.399Z,39.95
2023-05-20T03:18:49.769Z,37.45
2023-05-20T03:21:16.881Z,43.03
2023-05-20T03:23:43.935Z,40.03
2023-05-20T03:26:11.371Z,39.20
2023-05-20T03:28:38.590Z,40.60
2023-05-20T03:31:06.523Z,40.67
2023-05-20T03:33:35.592Z,40.42
2023-05-20T03:36:02.743Z,34.97
2023-05-20T03:38:30.518Z,41.40
2023-05-20T03:40:57.584Z,36.13
2023-05-20T03:43:25.589Z,40.95
2023-05-20T03:45:52.672Z,43.00
2023-05-20T03:48:20.291Z,40.53
2023-05-20T03:50:47.478Z,44.58
2023-05-20T03:53:14.559Z,43.58
2023-05-20T03:55:42.471Z,38.25
2023-05-20T03:58:09.557Z,47.30
2023-05-20T04:00:37.005Z,38.83
2023-05-20T04:03:04.387Z,42.40
2023-05-20T04:05:32.333Z,46.30
2023-05-20T04:07:59.621Z,51.00
2023-05-20T04:10:26.692Z,43.95
2023-05-20T04:12:53.996Z,57.47
2023-05-20T04:15:23.854Z,46.92
2023-05-20T04:17:52.403Z,46.25
2023-05-20T04:20:20.013Z,46.60
2023-05-20T04:22:48.167Z,48.50
2023-05-20T04:25:15.285Z,41.90
2023-05-20T04:27:43.730Z,47.10
2023-05-20T04:30:11.894Z,43.75
2023-05-20T04:32:39.115Z,44.13
2023-05-20T04:35:11.555Z,50.13
2023-05-20T04:37:39.240Z,43.95
2023-05-20T04:40:06.985Z,45.72
2023-05-20T04:42:34.642Z,43.60
2023-05-20T04:45:05.899Z,44.80
2023-05-20T04:47:38.961Z,44.00
2023-05-20T04:50:12.252Z,46.35
2023-05-20T04:52:40.189Z,43.85
2023-05-20T04:55:12.464Z,43.55
2023-05-20T04:57:41.842Z,44.90
2023-05-20T05:00:12.348Z,47.38
2023-05-20T05:02:40.180Z,43.40
2023-05-20T05:05:08.122Z,45.05
2023-05-20T05:07:35.333Z,41.53
2023-05-20T05:10:02.585Z,46.83
2023-05-20T05:12:32.771Z,49.58
2023-05-20T05:15:00.068Z,44.13
2023-05-20T05:17:28.822Z,59.53
2023-05-20T05:19:56.251Z,43.40
2023-05-20T05:22:23.285Z,52.85
2023-05-20T05:24:50.426Z,45.15
2023-05-20T05:27:17.553Z,46.85
2023-05-20T05:29:44.969Z,49.53
2023-05-20T05:32:12.065Z,46.60
2023-05-20T05:34:39.124Z,44.05
2023-05-20T05:37:06.336Z,44.25
2023-05-20T05:39:34.603Z,41.67
2023-05-20T05:42:01.648Z,42.65
2023-05-20T05:44:28.841Z,37.60
2023-05-20T05:46:55.946Z,43.75
2023-05-20T05:49:23.131Z,42.85
2023-05-20T05:51:51.496Z,40.50
2023-05-20T05:54:20.496Z,38.63
2023-05-20T05:56:47.693Z,39.90
2023-05-20T05:59:16.382Z,38.67
2023-05-20T06:01:43.650Z,35.90
2023-05-20T06:04:10.865Z,34.60
2023-05-20T06:06:38.334Z,40.00
2023-05-20T06:09:05.525Z,34.15
2023-05-20T06:11:32.702Z,39.42
2023-05-20T06:14:00.284Z,40.67
2023-05-20T06:16:27.535Z,38.03
2023-05-20T06:18:57.293Z,35.97
2023-05-20T06:21:24.554Z,35.35
2023-05-20T06:23:51.611Z,38.63
2023-05-20T06:26:18.760Z,37.83
2023-05-20T06:28:45.767Z,34.45
2023-05-20T06:31:12.835Z,32.28
2023-05-20T06:33:39.963Z,40.03
2023-05-20T06:36:07.400Z,37.65
2023-05-20T06:38:34.479Z,37.22
2023-05-20T06:41:01.867Z,39.08
2023-05-20T06:43:29.148Z,34.35
2023-05-20T06:45:56.450Z,35.25
2023-05-20T06:48:23.569Z,34.17
2023-05-20T06:50:50.754Z,43.30
2023-05-20T06:53:17.773Z,31.55
2023-05-20T06:55:44.819Z,39.47
2023-05-20T06:58:11.833Z,34.88
2023-05-20T07:00:39.306Z,40.10
2023-05-20T07:03:06.691Z,35.28
2023-05-20T07:05:34.175Z,35.85
2023-05-20T07:08:01.514Z,40.47
2023-05-20T07:10:29.345Z,32.28
2023-05-20T07:12:56.376Z,31.02
2023-05-20T07:15:23.382Z,32.10
2023-05-20T07:17:50.498Z,29.17
2023-05-20T07:20:17.723Z,29.80
2023-05-20T07:22:45.204Z,34.67
2023-05-20T07:25:12.474Z,32.63
2023-05-20T07:27:39.575Z,37.13
2023-05-20T07:30:07.605Z,28.65
2023-05-20T07:32:34.822Z,30.35
2023-05-20T07:35:01.927Z,29.30
2023-05-20T07:37:29.051Z,30.10
2023-05-20T07:39:56.135Z,27.98
2023-05-20T07:42:23.202Z,27.63
2023-05-20T07:44:50.264Z,29.52
2023-05-20T07:47:17.411Z,24.05
2023-05-20T07:49:44.525Z,28.85
2023-05-20T07:52:11.641Z,26.25
2023-05-20T07:54:38.684Z,28.45
2023-05-20T07:57:05.975Z,24.38
2023-05-20T07:59:33.018Z,27.80
2023-05-20T08:02:00.180Z,27.73
2023-05-20T08:04:27.857Z,24.33
2023-05-20T08:06:56.091Z,23.42
2023-05-20T08:09:23.274Z,23.98
2023-05-20T08:11:50.789Z,27.38
2023-05-20T08:14:17.894Z,25.77
2023-05-20T08:16:45.101Z,23.70
2023-05-20T08:19:12.280Z,25.33
2023-05-20T08:21:39.554Z,26.17
2023-05-20T08:24:07.194Z,22.88
2023-05-20T08:26:34.285Z,29.10
2023-05-20T08:29:01.413Z,25.67
2023-05-20T08:31:28.721Z,28.70
2023-05-20T08:33:55.924Z,22.20
2023-05-20T08:36:23.678Z,21.42
2023-05-20T08:38:51.176Z,22.65
2023-05-20T08:41:18.418Z,19.20
2023-05-20T08:43:46.448Z,20.95
2023-05-20T08:46:16.197Z,20.10
2023-05-20T08:48:45.152Z,19.80
2023-05-20T08:51:13.677Z,18.73
2023-05-20T08:53:40.856Z,22.50
2023-05-20T08:56:09.740Z,19.15
2023-05-20T08:58:37.526Z,21.50
2023-05-20T09:01:05.880Z,22.45
2023-05-20T09:03:33.679Z,23.02
2023-05-20T09:06:09.081Z,21.63
2023-05-20T09:08:37.228Z,17.27
2023-05-20T09:11:04.507Z,19.85
2023-05-20T09:13:35.068Z,17.65
2023-05-20T09:16:03.365Z,14.18
2023-05-20T09:18:31.431Z,17.40
2023-05-20T09:20:58.774Z,18.77
2023-05-20T09:23:26.005Z,24.92
2023-05-20T09:25:53.502Z,22.13
2023-05-20T09:28:26.696Z,17.77
2023-05-20T09:31:01.027Z,17.55
2023-05-20T09:33:32.002Z,21.83
2023-05-20T09:36:08.768Z,18.92
2023-05-20T09:38:39.799Z,21.17
2023-05-20T09:41:11.451Z,18.60
2023-05-20T09:43:40.865Z,16.30
2023-05-20T09:46:08.930Z,18.10
2023-05-20T09:48:37.592Z,16.58
2023-05-20T09:51:07.291Z,20.13
2023-05-20T09:53:34.918Z,17.27
2023-05-20T09:56:02.168Z,17.85
2023-05-20T09:58:30.493Z,18.77
2023-05-20T10:00:57.743Z,16.08
2023-05-20T10:03:28.194Z,16.30
2023-05-20T10:06:27.282Z,17.75
2023-05-20T10:09:09.050Z,15.13
2023-05-20T10:12:04.030Z,16.23
2023-05-20T10:14:46.210Z,15.82
2023-05-20T10:18:16.183Z,16.05
2023-05-20T10:20:50.913Z,16.13
2023-05-20T10:23:28.662Z,17.88
2023-05-20T10:25:58.677Z,15.98
2023-05-20T10:28:36.788Z,18.85
2023-05-20T10:31:21.771Z,22.92
2023-05-20T10:33:52.257Z,15.55
2023-05-20T10:36:31.758Z,15.25
2023-05-20T10:39:00.720Z,15.27
2023-05-20T10:41:29.497Z,14.75
2023-05-20T10:44:06.913Z,15.35
2023-05-20T10:46:51.486Z,11.43
2023-05-20T10:49:26.776Z,15.25
2023-05-20T10:51:59.867Z,16.17
2023-05-20T10:54:27.205Z,13.60
2023-05-20T10:56:55.041Z,11.75
2023-05-20T10:59:22.750Z,11.55
2023-05-20T11:01:50.351Z,12.27
2023-05-20T11:04:19.511Z,13.25
2023-05-20T11:06:56.048Z,11.52
2023-05-20T11:09:23.578Z,14.07
2023-05-20T11:11:55.238Z,17.83
2023-05-20T11:14:22.651Z,10.45
2023-05-20T11:16:54.303Z,20.30
2023-05-20T11:19:21.728Z,15.85
2023-05-20T11:21:49.048Z,11.20
2023-05-20T11:24:29.036Z,11.00
2023-05-20T11:26:57.590Z,11.32
2023-05-20T11:29:27.347Z,13.05
2023-05-20T11:31:54.791Z,10.05
2023-05-20T11:34:24.988Z,13.45
2023-05-20T11:36:58.484Z,13.45
2023-05-20T11:39:29.652Z,9.35
2023-05-20T11:41:57.759Z,10.50
2023-05-20T11:44:26.298Z,9.02
2023-05-20T11:47:03.783Z,11.45
2023-05-20T11:49:39.182Z,9.70
2023-05-20T11:54:36.541Z,10.43
2023-05-20T11:57:05.763Z,10.38
2023-05-20T11:59:34.575Z,7.82
2023-05-20T12:02:01.653Z,16.75
2023-05-20T12:04:28.781Z,11.90
2023-05-20T12:06:58.733Z,10.40
2023-05-20T12:09:25.805Z,9.55
2023-05-20T12:11:52.920Z,13.70
2023-05-20T12:14:19.960Z,9.85
2023-05-20T12:16:47.114Z,8.82
2023-05-20T12:19:14.171Z,10.40
2023-05-20T12:21:41.506Z,14.40
2023-05-20T12:24:09.306Z,9.63
2023-05-20T12:26:36.495Z,14.30
2023-05-20T12:29:03.680Z,9.82
2023-05-20T12:31:33.789Z,8.85
2023-05-20T12:34:02.090Z,10.32
2023-05-20T12:36:29.299Z,9.32
2023-05-20T12:38:56.668Z,9.15
2023-05-20T12:41:23.947Z,16.73
2023-05-20T12:43:50.949Z,12.85
2023-05-20T12:46:18.980Z,7.82
2023-05-20T12:48:46.270Z,8.07
2023-05-20T12:51:13.337Z,8.55
2023-05-20T12:53:40.512Z,10.27
2023-05-20T12:56:08.098Z,11.10
2023-05-20T12:58:35.194Z,8.00
2023-05-20T13:01:02.262Z,12.38
2023-05-20T13:03:29.397Z,9.40
2023-05-20T13:05:56.592Z,8.20
2023-05-20T13:08:23.663Z,13.00
2023-05-20T13:10:50.919Z,9.35
2023-05-20T13:13:21.605Z,13.10
2023-05-20T13:15:51.687Z,9.27
2023-05-20T13:18:19.490Z,8.98
2023-05-20T13:20:47.143Z,11.50
2023-05-20T13:23:14.222Z,10.73
2023-05-20T13:25:41.289Z,21.65
2023-05-20T13:28:08.451Z,8.13
2023-05-20T13:30:35.784Z,6.57
2023-05-20T13:33:04.437Z,10.85
2023-05-20T13:35:31.528Z,8.30
2023-05-20T13:37:58.575Z,11.10
2023-05-20T13:40:25.742Z,19.17
2023-05-20T13:42:52.814Z,19.13
2023-05-20T13:45:19.854Z,11.77
2023-05-20T13:47:47.342Z,16.38
2023-05-20T13:50:14.501Z,11.45
2023-05-20T13:52:41.603Z,11.52
2023-05-20T13:55:09.013Z,10.48
2023-05-20T13:57:36.466Z,11.05
2023-05-20T14:00:04.488Z,9.35
2023-05-20T14:02:32.091Z,19.23
2023-05-20T14:04:59.274Z,12.82
2023-05-20T14:07:26.463Z,12.13
2023-05-20T14:09:53.511Z,7.45
2023-05-20T14:12:22.887Z,14.85
2023-05-20T14:14:50.893Z,11.82
2023-05-20T14:17:17.962Z,11.35
2023-05-20T14:19:45.015Z,12.18
2023-05-20T14:22:14.682Z,11.27
2023-05-20T14:24:41.787Z,13.07
2023-05-20T14:27:08.958Z,11.02
2023-05-20T14:29:35.992Z,18.58
2023-05-20T14:32:05.068Z,12.43
2023-05-20T14:34:32.207Z,7.10
2023-05-20T14:36:59.240Z,9.35
2023-05-20T14:39:26.290Z,8.43
2023-05-20T14:41:53.338Z,10.13
2023-05-20T14:44:20.406Z,11.65
2023-05-20T14:46:47.831Z,13.85
2023-05-20T14:49:18.026Z,12.65
2023-05-20T14:51:45.139Z,9.63
2023-05-20T14:54:12.262Z,11.43
2023-05-20T14:56:39.533Z,17.15
2023-05-20T14:59:07.285Z,8.07
2023-05-20T15:01:34.507Z,10.10
2023-05-20T15:04:01.649Z,8.93
2023-05-20T15:06:28.698Z,12.73
2023-05-20T15:08:55.718Z,11.88
2023-05-20T15:11:22.799Z,14.63
2023-05-20T15:13:51.309Z,12.50
2023-05-20T15:16:24.261Z,10.80
2023-05-20T15:18:52.166Z,10.15
2023-05-20T15:21:19.279Z,13.88
2023-05-20T15:23:46.436Z,12.95
2023-05-20T15:26:13.515Z,10.60
2023-05-20T15:28:41.225Z,17.48
2023-05-20T15:31:08.470Z,12.82
2023-05-20T15:33:35.650Z,11.00
2023-05-20T15:36:02.857Z,10.68
2023-05-20T15:38:29.918Z,17.05
2023-05-20T15:40:57.210Z,12.85
2023-05-20T15:43:24.295Z,8.07
2023-05-20T15:45:51.411Z,14.93
2023-05-20T15:48:18.626Z,13.93
2023-05-20T15:50:45.744Z,13.88
2023-05-20T15:53:14.869Z,16.23
2023-05-20T15:55:42.978Z,14.43
2023-05-20T15:58:10.605Z,8.73
2023-05-20T16:00:37.785Z,7.93
2023-05-20T16:03:04.996Z,14.43
2023-05-20T16:05:32.244Z,9.73
2023-05-20T16:07:59.581Z,14.45
2023-05-20T16:10:32.477Z,9.93
2023-05-20T16:13:03.465Z,9.38
2023-05-20T16:15:35.545Z,9.10
2023-05-20T16:18:03.557Z,11.82
2023-05-20T16:20:30.701Z,11.38
2023-05-20T16:22:57.723Z,12.63
2023-05-20T16:25:24.793Z,18.02
2023-05-20T16:27:51.849Z,15.73
2023-05-20T16:30:19.043Z,15.70
2023-05-20T16:32:46.230Z,12.73
2023-05-20T16:35:15.565Z,10.38
2023-05-20T16:37:44.464Z,16.20
2023-05-20T16:40:12.144Z,10.93
2023-05-20T16:42:39.803Z,11.05
2023-05-20T16:45:07.803Z,9.32
2023-05-20T16:47:37.028Z,10.52
2023-05-20T16:50:05.187Z,11.73
2023-05-20T16:52:34.899Z,13.32
2023-05-20T16:55:03.892Z,18.02
2023-05-20T16:57:31.314Z,9.38
2023-05-20T16:59:58.614Z,9.82
2023-05-20T17:02:26.085Z,9.90
2023-05-20T17:04:53.184Z,16.05
2023-05-20T17:07:20.422Z,12.82
2023-05-20T17:09:47.521Z,11.77
2023-05-20T17:12:14.727Z,13.27
2023-05-20T17:14:42.061Z,12.90
2023-05-20T17:17:09.584Z,14.07
2023-05-20T17:19:37.139Z,12.35
2023-05-20T17:22:04.576Z,13.82
2023-05-20T17:24:33.571Z,11.40
2023-05-20T17:27:01.186Z,10.93
2023-05-20T17:29:28.864Z,15.88
2023-05-20T17:31:56.710Z,17.05
2023-05-20T17:34:24.347Z,17.17
2023-05-20T17:36:52.202Z,18.35
2023-05-20T17:39:20.156Z,12.57
2023-05-20T17:41:47.878Z,12.05
2023-05-20T17:44:15.787Z,14.85
2023-05-20T17:46:43.757Z,17.92
2023-05-20T17:49:13.232Z,13.07
2023-05-20T17:51:42.792Z,13.07
2023-05-20T17:54:11.211Z,21.65
2023-05-20T17:56:39.318Z,16.58
2023-05-20T17:59:07.335Z,15.80
2023-05-20T18:01:37.953Z,15.32
2023-05-20T18:04:06.396Z,13.75
2023-05-20T18:06:36.800Z,15.57
2023-05-20T18:09:06.435Z,13.88
2023-05-20T18:11:35.034Z,14.48
2023-05-20T18:14:03.481Z,11.90
2023-05-20T18:16:31.778Z,11.48
2023-05-20T18:18:59.854Z,18.48
2023-05-20T18:21:28.017Z,14.25
2023-05-20T18:23:56.168Z,13.30
2023-05-20T18:26:24.189Z,14.15
2023-05-20T18:28:52.134Z,16.02
2023-05-20T18:31:20.197Z,18.48
2023-05-20T18:33:48.195Z,13.13
2023-05-20T18:36:16.269Z,15.48
2023-05-20T18:38:45.530Z,21.00
2023-05-20T18:41:13.428Z,16.00
2023-05-20T18:43:41.410Z,19.42
2023-05-20T18:46:10.011Z,15.27
2023-05-20T18:48:38.050Z,17.50
2023-05-20T18:51:06.107Z,20.10
2023-05-20T18:53:34.122Z,23.65
2023-05-20T18:56:03.824Z,22.95
2023-05-20T18:58:32.333Z,25.52
2023-05-20T19:01:18.988Z,26.90
2023-05-20T19:03:47.466Z,23.45
2023-05-20T19:06:17.108Z,29.13
2023-05-20T19:08:45.341Z,22.38
2023-05-20T19:11:13.508Z,23.77
2023-05-20T19:13:42.485Z,24.08
2023-05-20T19:16:10.860Z,18.98
2023-05-20T19:18:39.236Z,26.42
2023-05-20T19:21:07.331Z,26.48
2023-05-20T19:23:35.584Z,23.67
2023-05-20T19:26:05.977Z,15.35
2023-05-20T19:28:34.077Z,18.65
2023-05-20T19:31:02.450Z,15.80
2023-05-20T19:33:30.600Z,17.80
2023-05-20T19:35:58.719Z,21.02
2023-05-20T19:38:26.976Z,19.85
2023-05-20T19:40:55.073Z,21.00
2023-05-20T19:43:24.034Z,20.98
2023-05-20T19:45:52.268Z,21.52
2023-05-20T19:48:22.203Z,19.63
2023-05-20T19:50:50.699Z,24.27
2023-05-20T19:53:20.584Z,19.05
2023-05-20T19:55:48.826Z,20.77
2023-05-20T19:58:17.364Z,22.65
2023-05-20T20:00:45.425Z,18.83
2023-05-20T20:03:14.392Z,22.20
2023-05-20T20:05:42.546Z,20.58
2023-05-20T20:08:10.696Z,20.27
2023-05-20T20:10:38.978Z,24.52
2023-05-20T20:13:07.376Z,23.95
2023-05-20T20:15:35.657Z,23.98
2023-05-20T20:18:04.405Z,21.95
2023-05-20T20:20:38.294Z,22.55
2023-05-20T20:23:10.138Z,21.75
2023-05-20T20:25:39.585Z,23.17
2023-05-20T20:28:10.455Z,23.80
2023-05-20T20:30:41.580Z,22.70
2023-05-20T20:33:10.368Z,24.08
2023-05-20T20:35:38.850Z,23.25
2023-05-20T20:38:09.216Z,20.92
2023-05-20T20:40:42.900Z,20.63
2023-05-20T20:43:20.916Z,21.77
2023-05-20T20:45:53.525Z,22.30
2023-05-20T20:48:27.288Z,29.27
2023-05-20T20:50:55.357Z,24.48
2023-05-20T20:53:23.288Z,21.30
2023-05-20T20:55:51.732Z,27.98
2023-05-20T20:58:19.611Z,19.67
2023-05-20T21:00:48.755Z,20.90
2023-05-20T21:03:19.039Z,24.25
2023-05-20T21:05:46.137Z,24.25
2023-05-20T21:08:13.385Z,26.58
2023-05-20T21:10:40.673Z,26.63
2023-05-20T21:13:07.942Z,20.45
2023-05-20T21:15:35.222Z,21.92
2023-05-20T21:18:02.499Z,25.75
2023-05-20T21:20:29.716Z,23.55
2023-05-20T21:22:56.976Z,24.08
2023-05-20T21:25:24.061Z,22.95
2023-05-20T21:27:51.505Z,27.92
2023-05-20T21:30:20.071Z,23.15
2023-05-20T21:32:47.185Z,21.02
2023-05-20T21:35:14.280Z,23.65
2023-05-20T21:37:41.348Z,24.30
2023-05-20T21:40:09.260Z,26.40
2023-05-20T21:42:36.406Z,21.98
2023-05-20T21:45:03.739Z,25.10
2023-05-20T21:47:30.929Z,26.45
2023-05-20T21:49:57.982Z,26.13
2023-05-20T21:52:25.042Z,24.83
2023-05-20T21:54:52.206Z,24.75
2023-05-20T21:57:19.285Z,29.63
2023-05-20T21:59:46.450Z,25.75
2023-05-20T22:02:13.558Z,25.92
2023-05-20T22:04:40.816Z,22.38
2023-05-20T22:07:07.969Z,27.17
2023-05-20T22:09:35.268Z,25.67
2023-05-20T22:12:03.738Z,22.67
2023-05-20T22:14:30.807Z,22.20
2023-05-20T22:16:58.528Z,23.83
2023-05-20T22:19:26.825Z,26.70
2023-05-20T22:21:54.082Z,28.48
2023-05-20T22:24:21.198Z,25.20
2023-05-20T22:26:48.331Z,20.60
2023-05-20T22:29:15.518Z,25.45
2023-05-20T22:31:42.647Z,25.15
2023-05-20T22:34:09.765Z,31.33
2023-05-20T22:36:37.464Z,22.88
2023-05-20T22:39:06.737Z,23.77
2023-05-20T22:41:33.882Z,24.10
2023-05-20T22:44:01.013Z,27.10
2023-05-20T22:46:28.584Z,26.83
2023-05-20T22:48:58.392Z,26.98
2023-05-20T22:51:25.557Z,23.83
2023-05-20T22:53:53.029Z,26.30
2023-05-20T22:56:21.297Z,26.33
2023-05-20T22:58:48.467Z,25.17
2023-05-20T23:01:16.734Z,27.83
2023-05-20T23:04:02.679Z,26.08
2023-05-20T23:06:29.702Z,25.13
2023-05-20T23:08:56.772Z,22.77
2023-05-20T23:11:23.900Z,30.65
2023-05-20T23:13:51.026Z,24.83
2023-05-20T23:16:18.161Z,24.67
2023-05-20T23:18:46.449Z,25.75
2023-05-20T23:21:14.372Z,23.95
2023-05-20T23:23:42.084Z,25.38
2023-05-20T23:26:09.225Z,24.58
2023-05-20T23:28:36.357Z,23.27
2023-05-20T23:31:03.651Z,26.50
2023-05-20T23:33:30.772Z,29.00
2023-05-20T23:35:58.139Z,32.08
2023-05-20T23:38:25.178Z,24.25
2023-05-20T23:40:52.315Z,26.25
2023-05-20T23:43:19.408Z,29.42
2023-05-20T23:45:46.791Z,25.88
2023-05-20T23:48:13.977Z,23.02
2023-05-20T23:50:41.100Z,23.45
2023-05-20T23:53:08.142Z,23.17
2023-05-20T23:55:35.512Z,22.30
2023-05-20T23:58:02.845Z,21.48
